createdAt,value
2019-01-29T00:02:29.307Z,89.08
2019-01-29T00:05:00.220Z,89.03
2019-01-29T00:07:31.175Z,88.97
2019-01-29T00:10:02.142Z,88.73
2019-01-29T00:12:34.734Z,88.98
2019-01-29T00:15:06.489Z,88.90
2019-01-29T00:17:37.377Z,89.04
2019-01-29T00:20:10.122Z,88.82
2019-01-29T00:22:41.403Z,88.71
2019-01-29T00:25:13.232Z,88.71
2019-01-29T00:27:44.483Z,88.96
2019-01-29T00:30:15.728Z,89.21
2019-01-29T00:32:46.653Z,89.26
2019-01-29T00:35:17.871Z,89.75
2019-01-29T00:37:48.812Z,89.71
2019-01-29T00:40:19.788Z,90.01
2019-01-29T00:42:50.725Z,90.27
2019-01-29T00:45:21.637Z,90.43
2019-01-29T00:47:52.561Z,90.36
2019-01-29T00:50:23.479Z,90.56
2019-01-29T00:52:54.513Z,90.85
2019-01-29T00:55:25.427Z,90.77
2019-01-29T00:57:56.323Z,90.99
2019-01-29T01:00:27.811Z,90.83
2019-01-29T01:02:58.724Z,90.78
2019-01-29T01:05:29.789Z,90.74
2019-01-29T01:08:00.683Z,90.85
2019-01-29T01:10:31.577Z,91.04
2019-01-29T01:13:02.793Z,91.14
2019-01-29T01:15:33.989Z,91.12
2019-01-29T01:18:05.058Z,91.21
2019-01-29T01:20:35.980Z,91.07
2019-01-29T01:23:07.314Z,91.13
2019-01-29T01:25:38.517Z,91.25
2019-01-29T01:28:09.495Z,91.43
2019-01-29T01:30:40.474Z,91.03
2019-01-29T01:33:11.360Z,91.23
2019-01-29T01:35:42.324Z,91.20
2019-01-29T01:38:13.544Z,91.11
2019-01-29T01:40:44.432Z,91.20
2019-01-29T01:43:15.358Z,91.25
2019-01-29T01:45:46.528Z,91.48
2019-01-29T01:48:17.433Z,91.32
2019-01-29T01:50:48.639Z,90.93
2019-01-29T01:53:19.537Z,90.91
2019-01-29T01:55:50.470Z,90.83
2019-01-29T01:58:21.364Z,91.07
2019-01-29T02:00:52.731Z,91.07
2019-01-29T02:03:23.636Z,90.92
2019-01-29T02:05:54.601Z,90.76
2019-01-29T02:08:25.582Z,91.29
2019-01-29T02:10:56.625Z,91.31
2019-01-29T02:13:27.622Z,90.92
2019-01-29T02:15:58.934Z,91.03
2019-01-29T02:18:29.811Z,90.95
2019-01-29T02:21:00.746Z,91.17
2019-01-29T02:23:31.683Z,90.92
2019-01-29T02:26:02.595Z,90.99
2019-01-29T02:28:33.524Z,90.82
2019-01-29T02:31:05.085Z,90.76
2019-01-29T02:33:36.013Z,90.47
2019-01-29T02:36:07.005Z,90.72
2019-01-29T02:38:37.917Z,90.61
2019-01-29T02:41:09.192Z,90.41
2019-01-29T02:43:40.176Z,90.64
2019-01-29T02:46:11.341Z,90.81
2019-01-29T02:48:42.236Z,91.12
2019-01-29T02:51:13.191Z,91.28
2019-01-29T02:53:44.120Z,91.18
2019-01-29T02:56:15.029Z,90.82
2019-01-29T02:58:45.965Z,90.67
2019-01-29T03:01:17.008Z,90.57
2019-01-29T03:03:47.906Z,90.58
2019-01-29T03:06:19.046Z,90.56
2019-01-29T03:08:49.941Z,90.21
2019-01-29T03:11:20.977Z,90.37
2019-01-29T03:13:51.889Z,90.27
2019-01-29T03:16:22.766Z,89.97
2019-01-29T03:18:53.710Z,89.87
2019-01-29T03:21:24.598Z,89.59
2019-01-29T03:23:55.824Z,89.70
2019-01-29T03:26:27.087Z,89.61
2019-01-29T03:28:57.986Z,89.55
2019-01-29T03:31:28.933Z,89.34
2019-01-29T03:33:59.922Z,89.42
2019-01-29T03:36:30.839Z,89.55
2019-01-29T03:39:01.728Z,89.67
2019-01-29T03:41:32.912Z,89.55
2019-01-29T03:44:03.843Z,89.59
2019-01-29T03:46:34.800Z,89.75
2019-01-29T03:49:05.926Z,89.23
2019-01-29T03:51:36.815Z,89.65
2019-01-29T03:54:07.829Z,89.70
2019-01-29T03:56:38.817Z,89.58
2019-01-29T03:59:09.708Z,89.63
2019-01-29T04:01:40.758Z,89.14
2019-01-29T04:04:11.661Z,88.81
2019-01-29T04:06:42.634Z,88.86
2019-01-29T04:09:13.729Z,88.71
2019-01-29T04:11:44.660Z,88.76
2019-01-29T04:14:15.634Z,88.88
2019-01-29T04:16:46.515Z,88.89
2019-01-29T04:19:17.399Z,88.85
2019-01-29T04:21:48.313Z,89.10
2019-01-29T04:24:19.285Z,89.53
2019-01-29T04:26:50.263Z,89.67
2019-01-29T04:29:21.134Z,89.49
2019-01-29T04:31:52.014Z,89.67
2019-01-29T04:34:22.933Z,89.75
2019-01-29T04:36:53.978Z,89.98
2019-01-29T04:39:25.210Z,90.09
2019-01-29T04:41:56.380Z,89.87
2019-01-29T04:44:27.330Z,89.89
2019-01-29T04:46:58.624Z,89.82
2019-01-29T04:49:29.829Z,90.07
2019-01-29T04:52:01.054Z,90.02
2019-01-29T04:54:31.998Z,90.10
2019-01-29T04:57:02.956Z,90.35
2019-01-29T04:59:34.180Z,90.42
2019-01-29T05:02:05.187Z,90.55
2019-01-29T05:04:36.154Z,90.63
2019-01-29T05:07:07.418Z,90.45
2019-01-29T05:09:38.297Z,90.61
2019-01-29T05:12:09.507Z,90.46
2019-01-29T05:14:40.432Z,90.40
2019-01-29T05:17:11.471Z,90.24
2019-01-29T05:19:42.740Z,90.07
2019-01-29T05:22:13.612Z,90.17
2019-01-29T05:24:44.540Z,90.28
2019-01-29T05:27:15.743Z,90.38
2019-01-29T05:29:46.747Z,90.43
2019-01-29T05:32:17.641Z,90.53
2019-01-29T05:34:48.520Z,90.49
2019-01-29T05:37:19.811Z,90.48
2019-01-29T05:39:50.684Z,90.73
2019-01-29T05:42:21.708Z,90.45
2019-01-29T05:44:52.593Z,90.33
2019-01-29T05:47:23.494Z,90.48
2019-01-29T05:49:54.478Z,90.39
2019-01-29T05:52:25.383Z,90.72
2019-01-29T05:54:56.621Z,90.70
2019-01-29T05:57:27.613Z,90.84
2019-01-29T05:59:58.501Z,91.01
2019-01-29T06:02:29.755Z,90.92
2019-01-29T06:05:00.668Z,90.54
2019-01-29T06:07:31.587Z,90.70
2019-01-29T06:10:02.506Z,90.95
2019-01-29T06:12:33.480Z,90.86
2019-01-29T06:15:04.564Z,91.10
2019-01-29T06:17:35.475Z,91.10
2019-01-29T06:20:09.478Z,91.29
2019-01-29T06:22:40.362Z,91.57
2019-01-29T06:25:11.442Z,91.55
2019-01-29T06:27:42.530Z,91.72
2019-01-29T06:30:15.000Z,91.69
2019-01-29T06:32:45.946Z,91.66
2019-01-29T06:35:23.553Z,91.21
2019-01-29T06:37:54.662Z,90.92
2019-01-29T06:40:27.945Z,90.92
2019-01-29T06:42:59.188Z,91.18
2019-01-29T06:45:30.099Z,91.30
2019-01-29T06:48:00.985Z,91.32
2019-01-29T06:50:32.317Z,91.43
2019-01-29T06:53:03.484Z,91.41
2019-01-29T06:55:34.458Z,91.42
2019-01-29T06:58:05.792Z,91.39
2019-01-29T07:00:36.815Z,91.47
2019-01-29T07:03:07.833Z,90.94
2019-01-29T07:05:38.810Z,91.01
2019-01-29T07:08:09.771Z,90.86
2019-01-29T07:10:40.674Z,90.91
2019-01-29T07:13:11.943Z,90.91
2019-01-29T07:16:12.548Z,90.93
2019-01-29T07:18:46.567Z,90.24
2019-01-29T07:21:17.484Z,89.95
2019-01-29T07:23:48.402Z,89.81
2019-01-29T07:26:19.327Z,89.51
2019-01-29T07:28:50.564Z,89.35
2019-01-29T07:31:21.437Z,89.21
2019-01-29T07:33:52.632Z,88.97
2019-01-29T07:36:23.533Z,88.72
2019-01-29T07:38:54.811Z,88.52
2019-01-29T07:41:25.711Z,88.41
2019-01-29T07:43:56.607Z,88.27
2019-01-29T07:46:27.548Z,87.75
2019-01-29T07:48:58.465Z,87.52
2019-01-29T07:51:29.487Z,87.21
2019-01-29T07:54:00.375Z,87.25
2019-01-29T07:56:31.259Z,86.90
2019-01-29T07:59:02.185Z,86.75
2019-01-29T08:01:33.140Z,86.50
2019-01-29T08:04:04.113Z,85.93
2019-01-29T08:06:35.038Z,86.18
2019-01-29T08:09:10.445Z,86.32
2019-01-29T08:11:41.361Z,86.08
2019-01-29T08:14:12.312Z,86.84
2019-01-29T08:16:43.288Z,86.89
2019-01-29T08:19:14.191Z,86.68
2019-01-29T08:21:45.143Z,86.87
2019-01-29T08:24:16.319Z,86.56
2019-01-29T08:26:47.505Z,86.41
2019-01-29T08:29:18.468Z,86.18
2019-01-29T08:31:49.343Z,85.65
2019-01-29T08:34:20.551Z,84.54
2019-01-29T08:36:51.455Z,78.77
2019-01-29T08:39:22.458Z,76.07
2019-01-29T08:41:53.756Z,73.46
2019-01-29T08:44:24.945Z,73.89
2019-01-29T08:46:55.876Z,73.85
2019-01-29T08:49:26.807Z,75.05
2019-01-29T08:51:57.740Z,75.91
2019-01-29T08:54:28.666Z,77.07
2019-01-29T08:56:59.550Z,78.02
2019-01-29T08:59:30.487Z,78.83
2019-01-29T09:02:01.390Z,79.23
2019-01-29T09:04:32.387Z,79.84
2019-01-29T09:07:03.304Z,81.27
2019-01-29T09:09:34.186Z,81.59
2019-01-29T09:12:05.146Z,81.26
2019-01-29T09:14:36.036Z,81.82
2019-01-29T09:17:06.961Z,81.86
2019-01-29T09:19:37.884Z,81.79
2019-01-29T09:22:09.083Z,81.64
2019-01-29T09:24:40.016Z,81.25
2019-01-29T09:27:10.908Z,81.58
2019-01-29T09:29:41.855Z,81.87
2019-01-29T09:32:13.294Z,81.97
2019-01-29T09:34:44.180Z,81.97
2019-01-29T09:37:15.132Z,82.02
2019-01-29T09:39:46.764Z,82.06
2019-01-29T09:42:17.647Z,82.40
2019-01-29T09:44:48.956Z,83.11
2019-01-29T09:47:20.231Z,82.63
2019-01-29T09:49:51.177Z,82.10
2019-01-29T09:52:22.073Z,81.76
2019-01-29T09:54:52.961Z,81.29
2019-01-29T09:57:24.139Z,81.85
2019-01-29T09:59:55.032Z,81.94
2019-01-29T10:02:25.965Z,81.75
2019-01-29T10:04:56.879Z,82.34
2019-01-29T10:07:27.782Z,82.11
2019-01-29T10:09:58.778Z,82.17
2019-01-29T10:12:29.693Z,81.87
2019-01-29T10:15:00.630Z,82.21
2019-01-29T10:17:31.914Z,81.84
2019-01-29T10:20:03.363Z,82.37
2019-01-29T10:22:34.438Z,81.89
2019-01-29T10:25:06.238Z,81.65
2019-01-29T10:27:37.163Z,81.58
2019-01-29T10:30:09.747Z,81.34
2019-01-29T10:32:40.638Z,81.00
2019-01-29T10:35:15.534Z,81.14
2019-01-29T10:37:46.447Z,80.64
2019-01-29T10:40:20.544Z,80.62
2019-01-29T10:42:51.788Z,80.34
2019-01-29T10:45:25.576Z,80.39
2019-01-29T10:47:56.528Z,80.14
2019-01-29T10:50:29.613Z,79.83
2019-01-29T10:53:00.750Z,80.26
2019-01-29T10:55:31.735Z,81.05
2019-01-29T10:58:02.665Z,80.69
2019-01-29T11:00:37.822Z,79.78
2019-01-29T11:03:11.221Z,80.31
2019-01-29T11:05:42.421Z,79.50
2019-01-29T11:08:13.310Z,79.49
2019-01-29T11:10:44.265Z,79.40
2019-01-29T11:13:15.234Z,79.86
2019-01-29T11:15:46.225Z,79.60
2019-01-29T11:18:17.799Z,80.19
2019-01-29T11:20:48.755Z,79.56
2019-01-29T11:23:19.628Z,80.35
2019-01-29T11:25:55.802Z,78.85
2019-01-29T11:28:23.167Z,78.15
2019-01-29T11:30:54.078Z,78.36
2019-01-29T11:33:25.109Z,77.80
2019-01-29T11:35:56.013Z,77.89
2019-01-29T11:38:27.000Z,77.67
2019-01-29T11:40:57.928Z,77.62
2019-01-29T11:43:29.134Z,77.35
2019-01-29T11:46:00.330Z,76.83
2019-01-29T11:48:31.215Z,76.44
2019-01-29T11:51:02.160Z,76.86
2019-01-29T11:53:33.096Z,77.05
2019-01-29T11:56:04.946Z,76.60
2019-01-29T11:58:36.352Z,77.44
2019-01-29T12:01:11.803Z,77.63
2019-01-29T12:03:42.803Z,78.30
2019-01-29T12:06:14.228Z,77.99
2019-01-29T12:08:45.431Z,77.98
2019-01-29T12:11:16.444Z,78.14
2019-01-29T12:13:47.480Z,78.02
2019-01-29T12:16:19.618Z,77.68
2019-01-29T12:18:50.634Z,77.46
2019-01-29T12:21:21.967Z,77.44
2019-01-29T12:23:52.872Z,77.07
2019-01-29T12:26:24.096Z,76.87
2019-01-29T12:28:55.301Z,76.55
2019-01-29T12:31:26.246Z,76.30
2019-01-29T12:33:57.157Z,75.99
2019-01-29T12:36:28.419Z,76.25
2019-01-29T12:38:59.655Z,76.52
2019-01-29T12:41:30.640Z,76.95
2019-01-29T12:44:01.929Z,76.99
2019-01-29T12:46:33.137Z,77.01
2019-01-29T12:49:04.158Z,77.13
2019-01-29T12:51:43.112Z,76.43
2019-01-29T12:54:14.375Z,76.00
2019-01-29T12:56:45.381Z,74.65
2019-01-29T12:59:16.332Z,74.76
2019-01-29T13:01:47.406Z,75.36
2019-01-29T13:04:18.749Z,75.06
2019-01-29T13:06:49.641Z,74.66
2019-01-29T13:09:20.688Z,75.68
2019-01-29T13:11:51.666Z,75.67
2019-01-29T13:14:22.574Z,74.77
2019-01-29T13:16:53.817Z,75.21
2019-01-29T13:19:24.707Z,76.01
2019-01-29T13:21:55.644Z,75.54
2019-01-29T13:24:26.555Z,76.12
2019-01-29T13:26:57.467Z,76.40
2019-01-29T13:29:28.400Z,76.26
2019-01-29T13:31:59.302Z,75.61
2019-01-29T13:34:30.250Z,76.03
2019-01-29T13:37:01.145Z,75.85
2019-01-29T13:39:32.065Z,75.82
2019-01-29T13:42:03.317Z,76.35
2019-01-29T13:44:34.216Z,76.61
2019-01-29T13:47:05.278Z,77.26
2019-01-29T13:49:36.179Z,77.22
2019-01-29T13:52:07.108Z,77.11
2019-01-29T13:54:38.018Z,77.05
2019-01-29T13:57:08.926Z,76.43
2019-01-29T13:59:39.872Z,76.60
2019-01-29T14:02:11.039Z,76.90
2019-01-29T14:04:42.004Z,76.92
2019-01-29T14:07:13.234Z,76.56
2019-01-29T14:09:44.129Z,77.02
2019-01-29T14:12:15.147Z,77.54
2019-01-29T14:14:46.373Z,77.17
2019-01-29T14:17:17.380Z,77.43
2019-01-29T14:19:48.274Z,77.84
2019-01-29T14:22:19.419Z,77.68
2019-01-29T14:24:50.387Z,78.18
2019-01-29T14:27:21.285Z,77.56
2019-01-29T14:29:52.260Z,77.62
2019-01-29T14:32:23.161Z,78.19
2019-01-29T14:34:54.139Z,78.12
2019-01-29T14:37:25.052Z,78.30
2019-01-29T14:40:20.422Z,77.78
2019-01-29T14:42:52.159Z,76.89
2019-01-29T14:45:26.665Z,76.93
2019-01-29T14:47:57.657Z,77.57
2019-01-29T14:50:29.912Z,76.93
2019-01-29T14:53:01.249Z,76.70
2019-01-29T14:55:32.186Z,76.21
2019-01-29T14:58:03.169Z,76.09
2019-01-29T15:00:34.388Z,76.34
2019-01-29T15:03:05.329Z,76.37
2019-01-29T15:05:36.575Z,76.10
2019-01-29T15:08:08.102Z,76.69
2019-01-29T15:10:39.107Z,76.34
2019-01-29T15:13:10.155Z,75.87
2019-01-29T15:15:47.759Z,75.78
2019-01-29T15:18:25.213Z,75.96
2019-01-29T15:20:56.390Z,76.64
2019-01-29T15:23:27.353Z,76.96
2019-01-29T15:25:58.306Z,76.54
2019-01-29T15:28:29.592Z,75.93
2019-01-29T15:31:00.510Z,76.58
2019-01-29T15:33:31.702Z,77.31
2019-01-29T15:36:02.945Z,77.51
2019-01-29T15:38:34.190Z,77.39
2019-01-29T15:41:06.674Z,77.64
2019-01-29T15:43:37.954Z,77.81
2019-01-29T15:46:08.869Z,78.24
2019-01-29T15:48:40.126Z,79.02
2019-01-29T15:51:11.312Z,79.43
2019-01-29T15:53:42.216Z,79.94
2019-01-29T15:56:13.449Z,80.18
2019-01-29T15:58:44.349Z,80.76
2019-01-29T16:01:15.309Z,80.53
2019-01-29T16:03:46.188Z,80.19
2019-01-29T16:06:17.092Z,79.69
2019-01-29T16:08:48.336Z,79.77
2019-01-29T16:11:19.311Z,79.48
2019-01-29T16:13:50.352Z,79.17
2019-01-29T16:16:21.272Z,79.15
2019-01-29T16:18:52.183Z,79.73
2019-01-29T16:21:23.185Z,79.92
2019-01-29T16:23:54.342Z,80.22
2019-01-29T16:26:25.296Z,80.11
2019-01-29T16:28:56.938Z,80.07
2019-01-29T16:31:28.415Z,79.65
2019-01-29T16:33:59.376Z,79.30
2019-01-29T16:36:30.375Z,79.75
2019-01-29T16:39:01.307Z,80.14
2019-01-29T16:41:32.345Z,80.49
2019-01-29T16:44:03.631Z,81.10
2019-01-29T16:46:34.534Z,81.60
2019-01-29T16:49:05.436Z,80.79
2019-01-29T16:51:42.198Z,80.05
2019-01-29T16:54:09.292Z,79.50
2019-01-29T16:56:40.279Z,79.87
2019-01-29T16:59:11.213Z,80.57
2019-01-29T17:01:42.475Z,81.40
2019-01-29T17:04:13.717Z,81.99
2019-01-29T17:06:44.614Z,82.45
2019-01-29T17:09:16.032Z,83.01
2019-01-29T17:11:46.959Z,83.60
2019-01-29T17:14:17.930Z,83.86
2019-01-29T17:16:48.890Z,84.57
2019-01-29T17:19:19.783Z,85.15
2019-01-29T17:21:50.849Z,85.35
2019-01-29T17:24:21.789Z,85.56
2019-01-29T17:26:52.786Z,85.51
2019-01-29T17:29:23.798Z,85.64
2019-01-29T17:31:54.760Z,85.73
2019-01-29T17:34:25.729Z,85.53
2019-01-29T17:36:56.635Z,85.43
2019-01-29T17:39:27.658Z,86.32
2019-01-29T17:41:58.879Z,86.83
2019-01-29T17:44:29.822Z,87.24
2019-01-29T17:47:00.781Z,87.50
2019-01-29T17:49:31.706Z,87.72
2019-01-29T17:52:02.679Z,87.79
2019-01-29T17:54:33.599Z,88.01
2019-01-29T17:57:04.668Z,88.24
2019-01-29T17:59:37.285Z,88.19
2019-01-29T18:02:09.126Z,87.95
2019-01-29T18:04:40.091Z,87.85
2019-01-29T18:07:11.013Z,88.08
2019-01-29T18:09:41.968Z,88.32
2019-01-29T18:12:12.962Z,88.19
2019-01-29T18:14:44.218Z,88.09
2019-01-29T18:17:15.830Z,88.25
2019-01-29T18:19:47.168Z,88.20
2019-01-29T18:22:18.158Z,88.25
2019-01-29T18:24:49.122Z,88.50
2019-01-29T18:27:20.319Z,88.50
2019-01-29T18:29:51.599Z,88.84
2019-01-29T18:32:22.809Z,89.21
2019-01-29T18:34:55.865Z,89.45
2019-01-29T18:37:27.367Z,89.50
2019-01-29T18:40:00.126Z,89.57
2019-01-29T18:42:31.077Z,89.69
2019-01-29T18:45:02.405Z,90.49
2019-01-29T18:47:33.373Z,90.61
2019-01-29T18:50:06.046Z,90.50
2019-01-29T18:52:38.083Z,90.42
2019-01-29T18:55:10.046Z,90.76
2019-01-29T18:57:41.244Z,90.77
2019-01-29T19:00:21.984Z,90.43
2019-01-29T19:02:53.548Z,90.50
2019-01-29T19:05:25.941Z,90.58
2019-01-29T19:07:56.951Z,90.51
2019-01-29T19:10:28.167Z,90.49
2019-01-29T19:13:00.387Z,90.78
2019-01-29T19:15:31.368Z,91.06
2019-01-29T19:18:02.467Z,90.76
2019-01-29T19:20:33.356Z,90.86
2019-01-29T19:23:04.273Z,90.93
2019-01-29T19:25:35.931Z,91.01
2019-01-29T19:28:06.937Z,90.88
2019-01-29T19:30:38.215Z,90.99
2019-01-29T19:33:09.284Z,90.91
2019-01-29T19:35:42.558Z,90.88
2019-01-29T19:38:13.460Z,91.17
2019-01-29T19:40:44.386Z,91.10
2019-01-29T19:43:16.406Z,90.87
2019-01-29T19:45:50.030Z,90.97
2019-01-29T19:48:21.342Z,91.23
2019-01-29T19:50:52.255Z,91.11
2019-01-29T19:53:23.435Z,90.88
2019-01-29T19:55:54.376Z,90.62
2019-01-29T19:58:31.992Z,90.66
2019-01-29T20:01:00.217Z,90.72
2019-01-29T20:03:31.739Z,90.34
2019-01-29T20:06:02.654Z,90.20
2019-01-29T20:08:33.898Z,90.23
2019-01-29T20:11:05.198Z,90.59
2019-01-29T20:13:39.236Z,90.55
2019-01-29T20:16:09.712Z,90.32
2019-01-29T20:18:40.948Z,90.21
2019-01-29T20:21:11.873Z,89.98
2019-01-29T20:23:42.828Z,89.72
2019-01-29T20:26:13.863Z,89.41
2019-01-29T20:28:47.496Z,89.85
2019-01-29T20:31:18.840Z,90.39
2019-01-29T20:33:50.126Z,90.61
2019-01-29T20:36:21.036Z,90.61
2019-01-29T20:38:51.983Z,90.57
2019-01-29T20:41:22.888Z,90.43
2019-01-29T20:43:53.955Z,90.25
2019-01-29T20:46:24.898Z,90.31
2019-01-29T20:48:57.526Z,90.95
2019-01-29T20:51:29.554Z,91.42
2019-01-29T20:54:03.049Z,91.30
2019-01-29T20:56:34.315Z,91.26
2019-01-29T20:59:05.358Z,91.13
2019-01-29T21:01:36.356Z,91.11
2019-01-29T21:04:07.412Z,91.44
2019-01-29T21:06:38.310Z,91.60
2019-01-29T21:09:11.024Z,91.81
2019-01-29T21:11:42.247Z,92.02
2019-01-29T21:14:13.196Z,91.76
2019-01-29T21:16:44.438Z,91.62
2019-01-29T21:19:15.362Z,91.66
2019-01-29T21:21:46.745Z,91.31
2019-01-29T21:24:19.865Z,91.07
2019-01-29T21:26:50.881Z,91.21
2019-01-29T21:29:22.667Z,91.75
2019-01-29T21:31:53.647Z,91.76
2019-01-29T21:34:24.573Z,91.85
2019-01-29T21:36:56.394Z,91.88
2019-01-29T21:39:27.618Z,91.61
2019-01-29T21:41:58.648Z,91.60
2019-01-29T21:44:29.601Z,91.59
2019-01-29T21:47:00.523Z,91.21
2019-01-29T21:49:31.428Z,90.95
2019-01-29T21:52:02.357Z,90.83
2019-01-29T21:54:33.843Z,90.76
2019-01-29T21:57:05.078Z,90.59
2019-01-29T21:59:35.967Z,90.25
2019-01-29T22:02:07.313Z,90.11
2019-01-29T22:04:38.222Z,89.92
2019-01-29T22:07:09.124Z,89.86
2019-01-29T22:09:40.087Z,89.94
2019-01-29T22:12:11.023Z,89.65
2019-01-29T22:14:42.354Z,89.48
2019-01-29T22:17:13.329Z,89.81
2019-01-29T22:19:44.531Z,89.88
2019-01-29T22:22:15.463Z,90.04
2019-01-29T22:24:46.371Z,89.91
2019-01-29T22:27:17.555Z,89.89
2019-01-29T22:29:48.804Z,90.05
2019-01-29T22:32:19.704Z,90.24
2019-01-29T22:34:50.731Z,90.37
2019-01-29T22:37:21.643Z,90.50
2019-01-29T22:39:52.570Z,90.49
2019-01-29T22:42:23.490Z,90.53
2019-01-29T22:44:54.661Z,90.62
2019-01-29T22:47:25.618Z,90.65
2019-01-29T22:49:56.511Z,90.48
2019-01-29T22:52:27.769Z,90.52
2019-01-29T22:54:58.724Z,90.74
2019-01-29T22:57:29.616Z,91.17
2019-01-29T23:00:00.682Z,91.12
2019-01-29T23:02:31.916Z,91.08
2019-01-29T23:05:02.806Z,91.25
2019-01-29T23:07:38.123Z,91.11
2019-01-29T23:10:16.109Z,90.89
2019-01-29T23:12:47.156Z,90.70
2019-01-29T23:15:19.931Z,90.35
2019-01-29T23:17:53.063Z,90.11
2019-01-29T23:20:23.675Z,89.79
2019-01-29T23:22:54.569Z,89.64
2019-01-29T23:25:25.537Z,89.54
2019-01-29T23:27:56.453Z,89.47
2019-01-29T23:30:27.461Z,89.30
2019-01-29T23:32:58.432Z,89.38
2019-01-29T23:35:29.328Z,89.44
2019-01-29T23:38:00.283Z,89.63
2019-01-29T23:40:31.178Z,89.57
2019-01-29T23:43:02.090Z,89.50
2019-01-29T23:45:33.049Z,89.71
2019-01-29T23:48:04.013Z,89.91
2019-01-29T23:50:34.947Z,89.85
2019-01-29T23:53:05.984Z,89.38
2019-01-29T23:55:36.898Z,89.18
2019-01-29T23:58:07.949Z,89.16
